Wilberton, Illinois
Current Conditions -  °F | °C
As of 12:35 PM on Thursday 27 Nov 2014 (Local Time) from KENL Reporting Station
Broken Clouds Broken Clouds  
Wind Chill: 23°   Ceiling: 4300
Heat Index: 30°   Visibility: 10mi
Dew Point: 22°   Wind: 7mph
Humidity: 73%   Direction: 310°NW
Pressure: 30.44"   Gusts: NA
Location:  38.8463°N, 89.0894°W
Report Text: KENL 271835Z AUTO 31006KT 10SM BKN043 M01/M05 A3044 RMK AO2 T10101053
Loading
Personal Weather Stations






























Interactive Weather Map New forecast layout! Learn more

10-Day Weather Forecast

Advertisements
Track Severe Weather on mobile